createdAt,value
2017-11-17T00:01:27.808Z,102068.50
2017-11-17T00:03:29.585Z,102061.23
2017-11-17T00:05:31.299Z,102061.23
2017-11-17T00:07:33.377Z,102064.20
2017-11-17T00:09:35.240Z,102060.37
2017-11-17T00:11:36.972Z,102059.41
2017-11-17T00:13:38.459Z,102057.74
2017-11-17T00:15:40.831Z,102062.05
2017-11-17T00:17:42.471Z,102056.02
2017-11-17T00:19:44.216Z,102056.92
2017-11-17T00:21:45.981Z,102059.89
2017-11-17T00:23:47.535Z,102057.79
2017-11-17T00:25:49.590Z,102059.02
2017-11-17T00:27:51.234Z,102068.50
2017-11-17T00:29:52.619Z,102061.25
2017-11-17T00:31:54.134Z,102065.91
2017-11-17T00:33:55.672Z,102074.51
2017-11-17T00:35:57.092Z,102074.03
2017-11-17T00:37:58.595Z,102072.42
2017-11-17T00:40:00.229Z,102068.91
2017-11-17T00:42:01.664Z,102070.66
2017-11-17T00:44:03.643Z,102070.66
2017-11-17T00:46:05.559Z,102074.95
2017-11-17T00:48:07.261Z,102079.30
2017-11-17T00:50:09.108Z,102077.10
2017-11-17T00:52:11.587Z,102071.56
2017-11-17T00:54:13.227Z,102072.42
2017-11-17T00:56:15.894Z,102081.09
2017-11-17T00:58:17.177Z,102083.19
2017-11-17T01:00:19.889Z,102080.98
2017-11-17T01:02:21.270Z,102088.73
2017-11-17T01:04:22.645Z,102086.21
2017-11-17T01:06:27.603Z,102075.44
2017-11-17T01:08:29.623Z,102089.29
2017-11-17T01:10:31.479Z,102085.03
2017-11-17T01:12:32.769Z,102084.17
2017-11-17T01:14:35.081Z,102087.56
2017-11-17T01:16:36.505Z,102091.88
2017-11-17T01:18:38.191Z,102091.86
2017-11-17T01:20:40.033Z,102093.20
2017-11-17T01:22:42.420Z,102103.98
2017-11-17T01:24:44.375Z,102095.35
2017-11-17T01:26:46.855Z,102100.46
2017-11-17T01:28:48.703Z,102102.25
2017-11-17T01:30:49.972Z,102103.10
2017-11-17T01:32:51.492Z,102106.91
2017-11-17T01:34:52.840Z,102105.69
2017-11-17T01:36:54.407Z,102101.39
2017-11-17T01:38:56.033Z,102101.82
2017-11-17T01:40:58.520Z,102097.94
2017-11-17T01:43:00.272Z,102095.84
2017-11-17T01:45:02.236Z,102103.55
2017-11-17T01:47:04.694Z,102098.44
2017-11-17T01:49:06.261Z,102096.71
2017-11-17T01:51:08.730Z,102104.83
2017-11-17T01:53:10.379Z,102106.55
2017-11-17T01:55:12.025Z,102103.98
2017-11-17T01:57:13.676Z,102110.00
2017-11-17T01:59:15.017Z,102107.41
2017-11-17T02:01:17.035Z,102108.28
2017-11-17T02:03:21.001Z,102120.75
2017-11-17T02:05:22.557Z,102112.58
2017-11-17T02:07:23.859Z,102113.87
2017-11-17T02:09:25.344Z,102116.41
2017-11-17T02:11:26.592Z,102107.84
2017-11-17T02:13:28.445Z,102104.83
2017-11-17T02:15:30.719Z,102116.02
2017-11-17T02:17:32.148Z,102114.25
2017-11-17T02:19:35.031Z,102111.59
2017-11-17T02:21:36.695Z,102118.97
2017-11-17T02:23:38.144Z,102109.52
2017-11-17T02:25:40.706Z,102121.13
2017-11-17T02:27:42.149Z,102119.34
2017-11-17T02:29:43.727Z,102120.21
2017-11-17T02:31:45.163Z,102128.45
2017-11-17T02:33:47.847Z,102132.74
2017-11-17T02:35:49.290Z,102127.52
2017-11-17T02:37:50.733Z,102126.73
2017-11-17T02:39:52.178Z,102122.85
2017-11-17T02:41:53.726Z,102141.37
2017-11-17T02:43:55.069Z,102132.80
2017-11-17T02:45:56.731Z,102134.48
2017-11-17T02:47:58.000Z,102140.55
2017-11-17T02:50:01.771Z,102133.23
2017-11-17T02:52:03.113Z,102137.11
2017-11-17T02:54:04.472Z,102136.33
2017-11-17T02:56:05.946Z,102138.41
2017-11-17T02:58:07.448Z,102144.44
2017-11-17T03:00:09.123Z,102136.26
2017-11-17T03:02:11.814Z,102146.95
2017-11-17T03:04:14.170Z,102146.95
2017-11-17T03:06:15.532Z,102148.36
2017-11-17T03:08:17.000Z,102149.59
2017-11-17T03:10:18.928Z,102160.37
2017-11-17T03:12:20.578Z,102159.00
2017-11-17T03:14:22.115Z,102154.28
2017-11-17T03:16:23.671Z,102161.58
2017-11-17T03:18:25.441Z,102157.72
2017-11-17T03:20:26.858Z,102154.64
2017-11-17T03:22:30.394Z,102154.22
2017-11-17T03:24:31.922Z,102155.57
2017-11-17T03:26:33.465Z,102163.38
2017-11-17T03:28:34.845Z,102171.06
2017-11-17T03:30:36.177Z,102174.48
2017-11-17T03:32:37.603Z,102176.60
2017-11-17T03:34:39.387Z,102179.19
2017-11-17T03:36:41.034Z,102177.45
2017-11-17T03:38:42.336Z,102188.22
2017-11-17T03:40:44.338Z,102184.34
2017-11-17T03:42:46.609Z,102190.44
2017-11-17T03:44:47.906Z,102191.30
2017-11-17T03:46:49.214Z,102198.55
2017-11-17T03:48:50.738Z,102198.19
2017-11-17T03:50:52.296Z,102203.77
2017-11-17T03:52:53.940Z,102198.66
2017-11-17T03:54:55.608Z,102202.53
2017-11-17T03:56:56.865Z,102200.22
2017-11-17T03:58:58.410Z,102208.01
2017-11-17T04:01:00.034Z,102205.00
2017-11-17T04:03:01.436Z,102210.64
2017-11-17T04:05:03.172Z,102209.36
2017-11-17T04:07:04.918Z,102212.70
2017-11-17T04:09:06.561Z,102212.33
2017-11-17T04:11:08.098Z,102217.97
2017-11-17T04:13:10.369Z,102220.07
2017-11-17T04:15:11.815Z,102217.55
2017-11-17T04:17:13.246Z,102215.82
2017-11-17T04:19:14.916Z,102217.59
2017-11-17T04:21:16.380Z,102228.84
2017-11-17T04:23:18.021Z,102220.23
2017-11-17T04:25:19.669Z,102224.50
2017-11-17T04:27:21.219Z,102223.69
2017-11-17T04:29:22.880Z,102227.92
2017-11-17T04:31:25.155Z,102221.05
2017-11-17T04:33:26.797Z,102232.67
2017-11-17T04:35:28.452Z,102224.55
2017-11-17T04:37:30.013Z,102223.20
2017-11-17T04:39:32.235Z,102218.95
2017-11-17T04:41:33.812Z,102222.84
2017-11-17T04:43:35.371Z,102219.39
2017-11-17T04:45:36.673Z,102218.95
2017-11-17T04:47:38.891Z,102215.52
2017-11-17T04:49:40.520Z,102216.80
2017-11-17T04:51:43.019Z,102219.81
2017-11-17T04:53:45.384Z,102222.45
2017-11-17T04:55:46.912Z,102223.25
2017-11-17T04:57:48.584Z,102224.98
2017-11-17T04:59:50.018Z,102227.14
2017-11-17T05:01:51.683Z,102222.34
2017-11-17T05:03:53.229Z,102223.25
2017-11-17T05:05:54.772Z,102226.75
2017-11-17T05:07:56.524Z,102227.56
2017-11-17T05:09:57.963Z,102236.98
2017-11-17T05:11:59.415Z,102237.39
2017-11-17T05:14:00.914Z,102233.97
2017-11-17T05:16:02.495Z,102231.81
2017-11-17T05:18:03.892Z,102234.82
2017-11-17T05:20:05.151Z,102231.86
2017-11-17T05:22:06.663Z,102235.26
2017-11-17T05:24:08.318Z,102232.72
2017-11-17T05:26:10.077Z,102229.66
2017-11-17T05:28:12.335Z,102234.46
2017-11-17T05:30:13.809Z,102235.36
2017-11-17T05:32:15.467Z,102237.95
2017-11-17T05:34:16.989Z,102242.63
2017-11-17T05:36:18.748Z,102243.10
2017-11-17T05:38:20.429Z,102244.83
2017-11-17T05:40:21.954Z,102247.00
2017-11-17T05:42:23.615Z,102247.84
2017-11-17T05:44:25.251Z,102253.00
2017-11-17T05:46:27.166Z,102262.05
2017-11-17T05:48:29.387Z,102260.44
2017-11-17T05:50:32.193Z,102266.03
2017-11-17T05:52:33.700Z,102274.66
2017-11-17T05:54:35.179Z,102272.55
2017-11-17T05:56:36.778Z,102277.66
2017-11-17T05:58:38.343Z,102278.14
2017-11-17T06:00:40.018Z,102282.45
2017-11-17T06:02:41.921Z,102287.56
2017-11-17T06:04:43.519Z,102291.43
2017-11-17T06:06:45.487Z,102289.77
2017-11-17T06:08:47.352Z,102287.66
2017-11-17T06:10:48.907Z,102285.90
2017-11-17T06:12:50.567Z,102287.66
2017-11-17T06:14:52.106Z,102293.70
2017-11-17T06:16:53.775Z,102291.97
2017-11-17T06:18:55.414Z,102288.59
2017-11-17T06:20:57.080Z,102297.95
2017-11-17T06:22:58.503Z,102293.27
2017-11-17T06:25:00.171Z,102301.92
2017-11-17T06:27:01.726Z,102304.98
2017-11-17T06:29:03.486Z,102307.09
2017-11-17T06:31:05.184Z,102303.65
2017-11-17T06:33:06.891Z,102306.71
2017-11-17T06:35:08.471Z,102307.58
2017-11-17T06:37:09.990Z,102311.44
2017-11-17T06:39:11.730Z,102317.42
2017-11-17T06:41:13.288Z,102325.22
2017-11-17T06:43:14.946Z,102320.10
2017-11-17T06:45:16.591Z,102323.07
2017-11-17T06:47:18.353Z,102318.86
2017-11-17T06:49:20.003Z,102317.09
2017-11-17T06:51:21.577Z,102318.81
2017-11-17T06:53:23.136Z,102321.84
2017-11-17T06:55:24.750Z,102326.61
2017-11-17T06:57:26.618Z,102326.14
2017-11-17T06:59:28.238Z,102332.20
2017-11-17T07:01:29.732Z,102341.67
2017-11-17T07:03:31.381Z,102339.09
2017-11-17T07:05:33.028Z,102341.34
2017-11-17T07:07:34.640Z,102344.31
2017-11-17T07:09:36.325Z,102352.48
2017-11-17T07:11:37.776Z,102358.89
2017-11-17T07:13:39.362Z,102366.25
2017-11-17T07:15:40.998Z,102366.63
2017-11-17T07:17:42.386Z,102364.52
2017-11-17T07:19:43.975Z,102364.41
2017-11-17T07:21:45.641Z,102363.49
2017-11-17T07:23:47.296Z,102373.23
2017-11-17T07:25:49.041Z,102367.27
2017-11-17T07:27:50.414Z,102368.61
2017-11-17T07:29:52.130Z,102375.50
2017-11-17T07:31:53.582Z,102377.22
2017-11-17T07:33:55.240Z,102373.78
2017-11-17T07:35:56.987Z,102371.25
2017-11-17T07:37:58.646Z,102377.70
2017-11-17T07:40:00.301Z,102375.60
2017-11-17T07:42:02.166Z,102379.91
2017-11-17T07:44:04.752Z,102385.98
2017-11-17T07:46:06.388Z,102386.83
2017-11-17T07:48:08.053Z,102388.18
2017-11-17T07:50:09.696Z,102393.30
2017-11-17T07:52:11.099Z,102398.89
2017-11-17T07:54:12.791Z,102401.13
2017-11-17T07:56:14.444Z,102403.33
2017-11-17T07:58:16.102Z,102401.19
2017-11-17T08:00:17.840Z,102407.68
2017-11-17T08:02:19.399Z,102407.25
2017-11-17T08:04:21.170Z,102410.74
2017-11-17T08:06:22.919Z,102407.25
2017-11-17T08:08:24.566Z,102415.05
2017-11-17T08:10:26.333Z,102413.33
2017-11-17T08:12:27.976Z,102411.19
2017-11-17T08:14:29.738Z,102415.91
2017-11-17T08:16:31.392Z,102421.12
2017-11-17T08:18:33.043Z,102424.52
2017-11-17T08:20:34.609Z,102426.28
2017-11-17T08:22:37.772Z,102419.41
2017-11-17T08:24:39.428Z,102422.89
2017-11-17T08:26:41.186Z,102428.44
2017-11-17T08:28:42.849Z,102430.27
2017-11-17T08:30:44.497Z,102424.23
2017-11-17T08:32:46.142Z,102431.13
2017-11-17T08:34:48.617Z,102428.08
2017-11-17T08:36:50.257Z,102430.69
2017-11-17T08:38:51.936Z,102427.30
2017-11-17T08:40:53.483Z,102422.95
2017-11-17T08:42:55.123Z,102420.86
2017-11-17T08:44:56.789Z,102416.94
2017-11-17T08:46:58.342Z,102425.11
2017-11-17T08:49:00.694Z,102424.68
2017-11-17T08:51:02.190Z,102426.87
2017-11-17T08:53:04.016Z,102426.06
2017-11-17T08:55:05.608Z,102427.84
2017-11-17T08:57:07.104Z,102427.59
2017-11-17T08:59:08.875Z,102420.70
2017-11-17T09:01:10.306Z,102416.55
2017-11-17T09:03:12.083Z,102419.52
2017-11-17T09:05:13.725Z,102416.41
2017-11-17T09:07:15.563Z,102419.38
2017-11-17T09:09:16.960Z,102419.46
2017-11-17T09:11:18.574Z,102423.00
2017-11-17T09:13:20.452Z,102423.44
2017-11-17T09:15:22.295Z,102420.47
2017-11-17T09:17:23.932Z,102419.19
2017-11-17T09:19:26.024Z,102419.14
2017-11-17T09:21:27.666Z,102419.48
2017-11-17T09:23:29.305Z,102420.81
2017-11-17T09:25:30.964Z,102417.98
2017-11-17T09:27:32.836Z,102422.23
2017-11-17T09:29:34.174Z,102423.48
2017-11-17T09:31:35.735Z,102424.97
2017-11-17T09:33:37.385Z,102417.17
2017-11-17T09:35:39.019Z,102429.22
2017-11-17T09:37:40.563Z,102423.63
2017-11-17T09:39:42.128Z,102428.48
2017-11-17T09:41:43.772Z,102429.69
2017-11-17T09:43:45.543Z,102420.66
2017-11-17T09:45:47.303Z,102421.14
2017-11-17T09:47:48.926Z,102420.27
2017-11-17T09:49:50.589Z,102422.33
2017-11-17T09:51:52.256Z,102425.25
2017-11-17T09:53:53.796Z,102424.06
2017-11-17T09:55:55.176Z,102424.16
2017-11-17T09:57:56.802Z,102424.62
2017-11-17T09:59:58.367Z,102421.52
2017-11-17T10:01:59.993Z,102427.11
2017-11-17T10:04:01.663Z,102426.25
2017-11-17T10:06:03.402Z,102430.59
2017-11-17T10:08:05.071Z,102429.70
2017-11-17T10:10:06.826Z,102424.10
2017-11-17T10:12:08.470Z,102424.15
2017-11-17T10:14:10.111Z,102423.30
2017-11-17T10:16:11.664Z,102425.88
2017-11-17T10:18:13.232Z,102428.02
2017-11-17T10:20:14.765Z,102426.64
2017-11-17T10:22:16.440Z,102427.02
2017-11-17T10:24:17.987Z,102426.25
2017-11-17T10:26:19.633Z,102433.98
2017-11-17T10:28:21.092Z,102430.59
2017-11-17T10:30:22.534Z,102432.78
2017-11-17T10:32:24.184Z,102429.78
2017-11-17T10:34:25.824Z,102426.34
2017-11-17T10:36:27.486Z,102426.78
2017-11-17T10:38:29.158Z,102424.62
2017-11-17T10:40:30.703Z,102427.16
2017-11-17T10:42:32.365Z,102429.73
2017-11-17T10:44:34.093Z,102418.17
2017-11-17T10:46:35.540Z,102416.89
2017-11-17T10:48:37.204Z,102415.65
2017-11-17T10:50:40.802Z,102420.71
2017-11-17T10:52:42.559Z,102421.95
2017-11-17T10:54:44.118Z,102415.51
2017-11-17T10:56:45.529Z,102418.17
2017-11-17T10:58:47.319Z,102413.83
2017-11-17T11:00:48.955Z,102413.45
2017-11-17T11:02:50.605Z,102408.72
2017-11-17T11:04:52.271Z,102408.38
2017-11-17T11:06:53.705Z,102409.52
2017-11-17T11:08:55.189Z,102410.39
2017-11-17T11:10:57.011Z,102416.50
2017-11-17T11:12:58.468Z,102408.81
2017-11-17T11:15:00.123Z,102404.98
2017-11-17T11:17:01.871Z,102407.91
2017-11-17T11:19:03.522Z,102404.42
2017-11-17T11:21:05.073Z,102401.75
2017-11-17T11:23:06.728Z,102404.94
2017-11-17T11:25:08.288Z,102410.88
2017-11-17T11:27:10.271Z,102405.75
2017-11-17T11:29:12.098Z,102399.73
2017-11-17T11:31:14.056Z,102401.03
2017-11-17T11:33:15.617Z,102401.84
2017-11-17T11:35:17.257Z,102392.42
2017-11-17T11:37:19.015Z,102399.69
2017-11-17T11:39:20.668Z,102404.41
2017-11-17T11:41:22.130Z,102400.55
2017-11-17T11:43:23.885Z,102393.72
2017-11-17T11:45:25.519Z,102395.44
2017-11-17T11:47:27.088Z,102391.12
2017-11-17T11:49:28.743Z,102389.85
2017-11-17T11:51:30.382Z,102394.58
2017-11-17T11:53:32.028Z,102398.39
2017-11-17T11:55:33.703Z,102394.53
2017-11-17T11:57:35.357Z,102388.19
2017-11-17T11:59:36.906Z,102392.00
2017-11-17T12:01:38.477Z,102389.85
2017-11-17T12:03:40.818Z,102393.72
2017-11-17T12:05:42.572Z,102387.02
2017-11-17T12:07:44.224Z,102383.31
2017-11-17T12:09:45.866Z,102380.94
2017-11-17T12:11:47.524Z,102383.74
2017-11-17T12:13:49.083Z,102379.64
2017-11-17T12:15:50.939Z,102383.23
2017-11-17T12:17:52.750Z,102383.30
2017-11-17T12:19:54.152Z,102378.48
2017-11-17T12:21:55.631Z,102381.98
2017-11-17T12:23:57.046Z,102379.64
2017-11-17T12:25:58.690Z,102379.88
2017-11-17T12:28:01.878Z,102378.24
2017-11-17T12:30:04.258Z,102383.50
2017-11-17T12:32:05.898Z,102380.48
2017-11-17T12:34:07.456Z,102372.64
2017-11-17T12:36:09.105Z,102374.61
2017-11-17T12:38:10.656Z,102373.23
2017-11-17T12:40:12.300Z,102366.23
2017-11-17T12:42:13.960Z,102364.73
2017-11-17T12:44:15.405Z,102370.83
2017-11-17T12:46:17.055Z,102366.34
2017-11-17T12:48:18.710Z,102356.73
2017-11-17T12:50:20.478Z,102360.59
2017-11-17T12:52:22.113Z,102365.59
2017-11-17T12:54:23.778Z,102357.38
2017-11-17T12:56:25.424Z,102363.38
2017-11-17T12:58:27.067Z,102364.66
2017-11-17T13:00:28.527Z,102362.44
2017-11-17T13:02:30.184Z,102353.86
2017-11-17T13:04:31.970Z,102356.75
2017-11-17T13:06:33.520Z,102358.41
2017-11-17T13:08:35.138Z,102361.62
2017-11-17T13:10:36.907Z,102354.56
2017-11-17T13:12:38.559Z,102355.36
2017-11-17T13:14:40.104Z,102351.84
2017-11-17T13:16:41.632Z,102348.70
2017-11-17T13:18:46.172Z,102353.99
2017-11-17T13:20:47.956Z,102352.77
2017-11-17T13:22:49.893Z,102352.44
2017-11-17T13:24:51.439Z,102349.84
2017-11-17T13:26:52.996Z,102350.55
2017-11-17T13:28:54.393Z,102361.78
2017-11-17T13:30:55.784Z,102352.35
2017-11-17T13:32:57.185Z,102356.86
2017-11-17T13:34:58.885Z,102358.59
2017-11-17T13:37:00.541Z,102355.16
2017-11-17T13:39:02.096Z,102355.22
2017-11-17T13:41:03.748Z,102359.19
2017-11-17T13:43:05.303Z,102354.36
2017-11-17T13:45:06.843Z,102350.98
2017-11-17T13:47:08.317Z,102352.64
2017-11-17T13:49:09.937Z,102345.85
2017-11-17T13:51:11.604Z,102344.14
2017-11-17T13:53:13.113Z,102345.05
2017-11-17T13:55:14.795Z,102348.08
2017-11-17T13:57:16.558Z,102353.33
2017-11-17T13:59:18.092Z,102349.02
2017-11-17T14:01:19.658Z,102353.83
2017-11-17T14:03:21.204Z,102363.33
2017-11-17T14:05:22.952Z,102353.98
2017-11-17T14:07:24.617Z,102356.50
2017-11-17T14:09:26.162Z,102361.30
2017-11-17T14:11:27.651Z,102363.53
2017-11-17T14:13:29.012Z,102364.47
2017-11-17T14:15:30.519Z,102363.61
2017-11-17T14:17:32.260Z,102355.98
2017-11-17T14:19:33.733Z,102353.45
2017-11-17T14:21:35.378Z,102359.93
2017-11-17T14:23:36.911Z,102359.50
2017-11-17T14:25:38.589Z,102353.11
2017-11-17T14:27:40.337Z,102356.13
2017-11-17T14:29:41.968Z,102349.27
2017-11-17T14:31:43.508Z,102354.97
2017-11-17T14:33:45.090Z,102351.50
2017-11-17T14:35:46.845Z,102346.39
2017-11-17T14:37:48.276Z,102346.88
2017-11-17T14:39:49.833Z,102349.13
2017-11-17T14:41:51.498Z,102348.77
2017-11-17T14:43:53.142Z,102343.56
2017-11-17T14:45:54.783Z,102343.99
2017-11-17T14:47:56.448Z,102350.55
2017-11-17T14:49:57.998Z,102342.85
2017-11-17T14:51:59.741Z,102346.30
2017-11-17T14:54:01.405Z,102347.61
2017-11-17T14:56:03.061Z,102345.93
2017-11-17T14:58:04.714Z,102353.34
2017-11-17T15:00:06.288Z,102345.64
2017-11-17T15:02:08.012Z,102344.34
2017-11-17T15:04:09.941Z,102343.92
2017-11-17T15:06:12.228Z,102341.45
2017-11-17T15:08:13.819Z,102354.91
2017-11-17T15:10:15.343Z,102344.19
2017-11-17T15:12:17.603Z,102345.10
2017-11-17T15:14:19.195Z,102352.94
2017-11-17T15:16:20.826Z,102344.43
2017-11-17T15:18:22.359Z,102324.67
2017-11-17T15:20:23.785Z,102339.36
2017-11-17T15:22:25.154Z,102343.79
2017-11-17T15:24:26.509Z,102335.56
2017-11-17T15:26:28.063Z,102340.34
2017-11-17T15:28:30.109Z,102340.41
2017-11-17T15:30:31.574Z,102344.89
2017-11-17T15:32:32.911Z,102337.52
2017-11-17T15:34:34.147Z,102336.11
2017-11-17T15:36:35.921Z,102331.66
2017-11-17T15:38:37.570Z,102335.37
2017-11-17T15:40:39.212Z,102322.63
2017-11-17T15:42:40.760Z,102321.98
2017-11-17T15:44:42.433Z,102317.24
2017-11-17T15:46:43.985Z,102319.08
2017-11-17T15:48:46.652Z,102328.13
2017-11-17T15:50:50.031Z,102324.46
2017-11-17T15:52:51.597Z,102328.06
2017-11-17T15:54:53.232Z,102321.87
2017-11-17T15:56:54.798Z,102322.94
2017-11-17T15:58:56.362Z,102326.02
2017-11-17T16:00:57.989Z,102326.59
2017-11-17T16:02:59.449Z,102330.97
2017-11-17T16:05:00.994Z,102323.38
2017-11-17T16:07:02.442Z,102323.76
2017-11-17T16:09:04.193Z,102321.75
2017-11-17T16:11:05.767Z,102316.27
2017-11-17T16:13:07.407Z,102310.31
2017-11-17T16:15:09.063Z,102314.40
2017-11-17T16:17:10.608Z,102314.68
2017-11-17T16:19:12.255Z,102306.48
2017-11-17T16:21:13.704Z,102306.06
2017-11-17T16:23:15.054Z,102305.20
2017-11-17T16:25:16.607Z,102307.78
2017-11-17T16:27:18.348Z,102314.66
2017-11-17T16:29:19.793Z,102309.55
2017-11-17T16:31:21.337Z,102310.42
2017-11-17T16:33:22.679Z,102309.98
2017-11-17T16:35:24.041Z,102312.63
2017-11-17T16:37:25.695Z,102307.47
2017-11-17T16:39:27.463Z,102304.50
2017-11-17T16:41:29.011Z,102304.02
2017-11-17T16:43:30.670Z,102300.25
2017-11-17T16:45:32.434Z,102297.31
2017-11-17T16:47:33.861Z,102296.02
2017-11-17T16:49:36.996Z,102293.86
2017-11-17T16:51:38.590Z,102295.69
2017-11-17T16:53:39.922Z,102290.91
2017-11-17T16:55:41.395Z,102284.08
2017-11-17T16:57:42.943Z,102290.09
2017-11-17T16:59:44.603Z,102293.59
2017-11-17T17:01:46.260Z,102291.53
2017-11-17T17:03:47.820Z,102289.45
2017-11-17T17:05:49.363Z,102294.66
2017-11-17T17:07:51.333Z,102299.83
2017-11-17T17:09:52.976Z,102302.02
2017-11-17T17:11:54.406Z,102302.08
2017-11-17T17:13:56.064Z,102306.81
2017-11-17T17:15:57.515Z,102305.57
2017-11-17T17:17:58.861Z,102303.00
2017-11-17T17:20:00.546Z,102309.94
2017-11-17T17:22:01.985Z,102293.73
2017-11-17T17:24:03.538Z,102303.16
2017-11-17T17:26:06.359Z,102294.65
2017-11-17T17:28:07.752Z,102301.54
2017-11-17T17:30:09.277Z,102293.84
2017-11-17T17:32:10.940Z,102287.77
2017-11-17T17:34:12.601Z,102293.00
2017-11-17T17:36:14.108Z,102287.48
2017-11-17T17:38:15.450Z,102290.52
2017-11-17T17:40:16.951Z,102288.43
2017-11-17T17:42:18.268Z,102288.00
2017-11-17T17:44:19.611Z,102290.68
2017-11-17T17:46:20.831Z,102292.88
2017-11-17T17:48:22.423Z,102293.75
2017-11-17T17:50:23.858Z,102292.52
2017-11-17T17:52:25.221Z,102296.01
2017-11-17T17:54:26.776Z,102299.07
2017-11-17T17:56:28.194Z,102297.87
2017-11-17T17:58:29.556Z,102304.33
2017-11-17T18:00:30.896Z,102315.13
2017-11-17T18:02:32.370Z,102313.89
2017-11-17T18:04:33.922Z,102312.22
2017-11-17T18:06:35.457Z,102313.47
2017-11-17T18:08:37.017Z,102319.58
2017-11-17T18:10:38.344Z,102330.77
2017-11-17T18:12:39.903Z,102325.22
2017-11-17T18:14:41.258Z,102331.71
2017-11-17T18:16:42.815Z,102331.72
2017-11-17T18:18:44.442Z,102334.77
2017-11-17T18:20:46.818Z,102338.70
2017-11-17T18:22:48.299Z,102333.58
2017-11-17T18:24:49.966Z,102330.63
2017-11-17T18:26:55.377Z,102331.10
2017-11-17T18:28:57.018Z,102333.72
2017-11-17T18:30:58.347Z,102332.48
2017-11-17T18:33:00.157Z,102344.09
2017-11-17T18:35:01.680Z,102336.79
2017-11-17T18:37:03.201Z,102338.50
2017-11-17T18:39:04.813Z,102336.35
2017-11-17T18:41:06.427Z,102339.75
2017-11-17T18:43:08.080Z,102338.55
2017-11-17T18:45:09.651Z,102339.03
2017-11-17T18:47:11.057Z,102346.77
2017-11-17T18:49:12.417Z,102347.58
2017-11-17T18:51:13.876Z,102344.23
2017-11-17T18:53:16.043Z,102343.33
2017-11-17T18:55:17.683Z,102339.03
2017-11-17T18:57:19.389Z,102324.89
2017-11-17T18:59:21.033Z,102314.19
2017-11-17T19:01:22.761Z,102313.34
2017-11-17T19:03:24.633Z,102312.86
2017-11-17T19:05:26.164Z,102311.72
2017-11-17T19:07:27.473Z,102302.69
2017-11-17T19:09:28.968Z,102298.39
2017-11-17T19:11:30.394Z,102301.02
2017-11-17T19:13:31.626Z,102304.46
2017-11-17T19:15:32.958Z,102295.91
2017-11-17T19:17:34.343Z,102297.63
2017-11-17T19:19:35.789Z,102295.91
2017-11-17T19:21:37.117Z,102286.88
2017-11-17T19:23:38.385Z,102276.63
2017-11-17T19:25:39.931Z,102283.11
2017-11-17T19:27:43.157Z,102283.53
2017-11-17T19:29:44.758Z,102282.31
2017-11-17T19:31:46.096Z,102278.87
2017-11-17T19:33:47.764Z,102283.64
2017-11-17T19:35:49.311Z,102281.97
2017-11-17T19:37:50.620Z,102271.23
2017-11-17T19:39:51.956Z,102280.30
2017-11-17T19:41:53.353Z,102279.06
2017-11-17T19:43:54.789Z,102280.78
2017-11-17T19:45:57.261Z,102280.78
2017-11-17T19:47:58.835Z,102283.83
2017-11-17T19:50:00.252Z,102270.89
2017-11-17T19:52:02.835Z,102273.43
2017-11-17T19:54:04.199Z,102268.36
2017-11-17T19:56:05.453Z,102262.34
2017-11-17T19:58:06.725Z,102255.05
2017-11-17T20:00:08.955Z,102257.68
2017-11-17T20:02:11.104Z,102266.31
2017-11-17T20:04:12.655Z,102259.44
2017-11-17T20:06:14.107Z,102257.23
2017-11-17T20:08:15.544Z,102247.08
2017-11-17T20:10:17.010Z,102252.19
2017-11-17T20:12:18.454Z,102249.56
2017-11-17T20:14:20.018Z,102246.64
2017-11-17T20:16:21.674Z,102244.98
2017-11-17T20:18:23.000Z,102250.13
2017-11-17T20:20:25.068Z,102256.57
2017-11-17T20:22:26.631Z,102260.02
2017-11-17T20:24:28.068Z,102262.16
2017-11-17T20:26:29.393Z,102261.31
2017-11-17T20:28:30.713Z,102265.64
2017-11-17T20:30:32.153Z,102269.94
2017-11-17T20:32:33.977Z,102269.08
2017-11-17T20:34:35.500Z,102272.14
2017-11-17T20:36:36.929Z,102272.56
2017-11-17T20:38:38.814Z,102267.41
2017-11-17T20:40:40.382Z,102267.50
2017-11-17T20:42:41.800Z,102264.92
2017-11-17T20:44:43.367Z,102266.22
2017-11-17T20:46:45.019Z,102267.55
2017-11-17T20:48:46.357Z,102264.11
2017-11-17T20:50:47.692Z,102268.46
2017-11-17T20:52:49.358Z,102264.98
2017-11-17T20:54:50.681Z,102264.63
2017-11-17T20:56:51.962Z,102257.86
2017-11-17T20:58:53.656Z,102261.30
2017-11-17T21:00:55.174Z,102268.17
2017-11-17T21:02:58.129Z,102264.73
2017-11-17T21:04:59.441Z,102256.19
2017-11-17T21:07:00.748Z,102268.22
2017-11-17T21:09:02.280Z,102263.53
2017-11-17T21:11:03.839Z,102261.86
2017-11-17T21:13:06.087Z,102261.00
2017-11-17T21:15:07.456Z,102264.86
2017-11-17T21:17:09.738Z,102254.22
2017-11-17T21:19:11.254Z,102260.66
2017-11-17T21:21:12.592Z,102246.49
2017-11-17T21:23:14.174Z,102242.20
2017-11-17T21:25:15.599Z,102247.36
2017-11-17T21:27:16.953Z,102237.91
2017-11-17T21:29:18.277Z,102227.21
2017-11-17T21:31:19.850Z,102232.80
2017-11-17T21:33:21.489Z,102235.90
2017-11-17T21:35:22.765Z,102233.33
2017-11-17T21:37:24.297Z,102237.27
2017-11-17T21:39:25.730Z,102237.32
2017-11-17T21:41:27.032Z,102225.78
2017-11-17T21:43:28.528Z,102242.44
2017-11-17T21:45:29.983Z,102232.61
2017-11-17T21:47:31.535Z,102234.84
2017-11-17T21:49:32.852Z,102237.37
2017-11-17T21:51:34.139Z,102230.98
2017-11-17T21:53:35.658Z,102232.27
2017-11-17T21:55:36.990Z,102231.88
2017-11-17T21:57:38.350Z,102246.09
2017-11-17T21:59:39.795Z,102252.92
2017-11-17T22:01:41.377Z,102249.48
2017-11-17T22:03:42.691Z,102239.66
2017-11-17T22:05:44.009Z,102239.22
2017-11-17T22:07:45.497Z,102236.13
2017-11-17T22:09:46.839Z,102232.73
2017-11-17T22:11:48.509Z,102232.83
2017-11-17T22:13:49.782Z,102234.16
2017-11-17T22:15:51.194Z,102233.68
2017-11-17T22:17:53.541Z,102238.45
2017-11-17T22:19:56.021Z,102239.79
2017-11-17T22:21:57.470Z,102229.27
2017-11-17T22:23:58.925Z,102240.69
2017-11-17T22:26:00.264Z,102235.58
2017-11-17T22:28:01.533Z,102235.20
2017-11-17T22:30:02.730Z,102233.55
2017-11-17T22:32:04.120Z,102238.30
2017-11-17T22:34:05.547Z,102230.62
2017-11-17T22:36:07.671Z,102238.93
2017-11-17T22:38:09.890Z,102230.66
2017-11-17T22:40:11.539Z,102233.17
2017-11-17T22:42:12.955Z,102225.03
2017-11-17T22:44:14.304Z,102225.17
2017-11-17T22:46:15.884Z,102229.24
2017-11-17T22:48:17.442Z,102231.53
2017-11-17T22:50:19.093Z,102236.05
2017-11-17T22:52:21.450Z,102232.86
2017-11-17T22:54:22.829Z,102230.07
2017-11-17T22:56:24.120Z,102224.73
2017-11-17T22:58:26.503Z,102230.16
2017-11-17T23:00:28.077Z,102231.32
2017-11-17T23:02:29.711Z,102226.50
2017-11-17T23:04:31.281Z,102226.81
2017-11-17T23:06:32.817Z,102218.45
2017-11-17T23:08:34.269Z,102218.70